CheckWX is a tool to help pilots better visualize weather data.  It is not intended as a substitute for an official pre-flight weather briefing.

08:16:07 UTC

KCBF METAR
Council Bluffs Municipal Airport
Council Bluffs, Iowa, USA
Current

21 mins ago

KCBF 220755Z AUTO 09009KT 10SM OVC095 M05/M07 A3028 RMK AO2
Observed
Feb-22 @ 07:55 UTC
Wind
  • 090° at 9 KTS
Visibility
10 SM
Flight Rules
VFR
Cloud Levels
  • Overcast at 9,500' AGL
Temperature
-5°C / 23°F
Dewpoint
-7°C / 19°F
Humidity
86%
Altimeter
30.28" Hg
Pressure
1025.42 hPa
Previous

41 mins ago

KCBF 220735Z AUTO 07006KT 10SM BKN100 OVC120 M04/M07 A3028 RMK AO2
Observed
Feb-22 @ 07:35 UTC
Wind
  • 070° at 6 KTS
Visibility
10 SM
Flight Rules
VFR
Cloud Levels
  • Broken at 10,000' AGL
  • Overcast at 12,000' AGL
Temperature
-4°C / 25°F
Dewpoint
-7°C / 19°F
Humidity
80%
Altimeter
30.28" Hg
Pressure
1025.42 hPa
Previous

1 hour ago

KCBF 220715Z AUTO 08010KT 10SM BKN110 M04/M07 A3027 RMK AO2
Observed
Feb-22 @ 07:15 UTC
Wind
  • 080° at 10 KTS
Visibility
10 SM
Flight Rules
VFR
Cloud Levels
  • Broken at 11,000' AGL
Temperature
-4°C / 25°F
Dewpoint
-7°C / 19°F
Humidity
80%
Altimeter
30.27" Hg
Pressure
1025.02 hPa